sensor_id;sensor_type;location;lat;lon;timestamp;P1;durP1;ratioP1;P2;durP2;ratioP2
53245;SDS011;39569;51.090;-1.786;2023-08-07T00:00:36;3.55;;;2.35;;
53245;SDS011;39569;51.090;-1.786;2023-08-07T00:03:03;2.47;;;2.28;;
53245;SDS011;39569;51.090;-1.786;2023-08-07T00:05:30;5.68;;;3.03;;
53245;SDS011;39569;51.090;-1.786;2023-08-07T00:07:56;2.17;;;2.03;;
53245;SDS011;39569;51.090;-1.786;2023-08-07T00:10:24;2.60;;;2.40;;
53245;SDS011;39569;51.090;-1.786;2023-08-07T00:12:51;1.67;;;1.42;;
53245;SDS011;39569;51.090;-1.786;2023-08-07T00:15:18;2.47;;;2.28;;
53245;SDS011;39569;51.090;-1.786;2023-08-07T00:17:45;4.00;;;2.80;;
53245;SDS011;39569;51.090;-1.786;2023-08-07T00:20:12;5.75;;;2.60;;
53245;SDS011;39569;51.090;-1.786;2023-08-07T00:22:38;2.78;;;1.90;;
53245;SDS011;39569;51.090;-1.786;2023-08-07T00:25:05;2.92;;;2.72;;
53245;SDS011;39569;51.090;-1.786;2023-08-07T00:27:34;3.53;;;2.88;;
53245;SDS011;39569;51.090;-1.786;2023-08-07T00:30:01;4.10;;;2.70;;
53245;SDS011;39569;51.090;-1.786;2023-08-07T00:32:27;2.78;;;2.15;;
53245;SDS011;39569;51.090;-1.786;2023-08-07T00:34:54;6.32;;;2.17;;
53245;SDS011;39569;51.090;-1.786;2023-08-07T00:37:21;3.45;;;3.15;;
53245;SDS011;39569;51.090;-1.786;2023-08-07T00:39:47;3.03;;;2.38;;
53245;SDS011;39569;51.090;-1.786;2023-08-07T00:42:14;1.90;;;1.80;;
53245;SDS011;39569;51.090;-1.786;2023-08-07T00:44:42;4.22;;;2.58;;
53245;SDS011;39569;51.090;-1.786;2023-08-07T00:47:09;2.40;;;2.30;;
53245;SDS011;39569;51.090;-1.786;2023-08-07T00:49:36;1.98;;;1.85;;
53245;SDS011;39569;51.090;-1.786;2023-08-07T00:52:04;2.63;;;2.17;;
53245;SDS011;39569;51.090;-1.786;2023-08-07T00:54:31;3.38;;;2.47;;
53245;SDS011;39569;51.090;-1.786;2023-08-07T00:56:58;2.50;;;2.33;;
53245;SDS011;39569;51.090;-1.786;2023-08-07T00:59:35;2.50;;;2.25;;
53245;SDS011;39569;51.090;-1.786;2023-08-07T01:02:04;3.15;;;2.50;;
53245;SDS011;39569;51.090;-1.786;2023-08-07T01:04:32;2.35;;;2.20;;
53245;SDS011;39569;51.090;-1.786;2023-08-07T01:06:58;2.53;;;2.33;;
53245;SDS011;39569;51.090;-1.786;2023-08-07T01:09:25;3.63;;;2.72;;
53245;SDS011;39569;51.090;-1.786;2023-08-07T01:11:54;6.78;;;2.50;;
53245;SDS011;39569;51.090;-1.786;2023-08-07T01:14:28;2.55;;;2.35;;
53245;SDS011;39569;51.090;-1.786;2023-08-07T01:17:02;2.78;;;2.50;;
53245;SDS011;39569;51.090;-1.786;2023-08-07T01:19:36;6.57;;;2.83;;
53245;SDS011;39569;51.090;-1.786;2023-08-07T01:22:05;2.83;;;2.63;;
53245;SDS011;39569;51.090;-1.786;2023-08-07T01:24:32;2.60;;;2.38;;
53245;SDS011;39569;51.090;-1.786;2023-08-07T01:27:00;2.40;;;2.30;;
53245;SDS011;39569;51.090;-1.786;2023-08-07T01:29:37;2.72;;;2.53;;
53245;SDS011;39569;51.090;-1.786;2023-08-07T01:32:09;4.25;;;2.75;;
53245;SDS011;39569;51.090;-1.786;2023-08-07T01:34:40;2.53;;;2.15;;
53245;SDS011;39569;51.090;-1.786;2023-08-07T01:37:10;3.75;;;3.00;;
53245;SDS011;39569;51.090;-1.786;2023-08-07T01:39:38;8.48;;;2.38;;
53245;SDS011;39569;51.090;-1.786;2023-08-07T01:42:07;3.92;;;2.78;;
53245;SDS011;39569;51.090;-1.786;2023-08-07T01:44:36;3.83;;;2.83;;
53245;SDS011;39569;51.090;-1.786;2023-08-07T01:47:03;4.70;;;2.35;;
53245;SDS011;39569;51.090;-1.786;2023-08-07T01:49:30;2.42;;;2.33;;
53245;SDS011;39569;51.090;-1.786;2023-08-07T01:51:57;4.70;;;3.03;;
53245;SDS011;39569;51.090;-1.786;2023-08-07T01:54:25;2.42;;;2.22;;
53245;SDS011;39569;51.090;-1.786;2023-08-07T01:56:52;6.43;;;2.20;;
53245;SDS011;39569;51.090;-1.786;2023-08-07T01:59:18;2.85;;;2.65;;
53245;SDS011;39569;51.090;-1.786;2023-08-07T02:01:45;3.03;;;2.45;;
53245;SDS011;39569;51.090;-1.786;2023-08-07T02:04:12;3.05;;;2.35;;
53245;SDS011;39569;51.090;-1.786;2023-08-07T02:06:38;2.85;;;2.45;;
53245;SDS011;39569;51.090;-1.786;2023-08-07T02:09:05;2.60;;;2.35;;
53245;SDS011;39569;51.090;-1.786;2023-08-07T02:11:33;2.58;;;2.38;;
53245;SDS011;39569;51.090;-1.786;2023-08-07T02:14:00;2.53;;;2.33;;
53245;SDS011;39569;51.090;-1.786;2023-08-07T02:16:27;3.33;;;3.03;;
53245;SDS011;39569;51.090;-1.786;2023-08-07T02:18:53;5.13;;;2.25;;
53245;SDS011;39569;51.090;-1.786;2023-08-07T02:21:20;2.92;;;2.72;;
53245;SDS011;39569;51.090;-1.786;2023-08-07T02:23:47;2.70;;;2.50;;
53245;SDS011;39569;51.090;-1.786;2023-08-07T02:26:14;4.95;;;3.08;;
53245;SDS011;39569;51.090;-1.786;2023-08-07T02:28:42;2.75;;;2.63;;
53245;SDS011;39569;51.090;-1.786;2023-08-07T02:31:08;2.53;;;2.30;;
53245;SDS011;39569;51.090;-1.786;2023-08-07T02:33:35;2.67;;;2.47;;
53245;SDS011;39569;51.090;-1.786;2023-08-07T02:36:02;2.75;;;2.50;;
53245;SDS011;39569;51.090;-1.786;2023-08-07T02:38:29;2.80;;;2.50;;
53245;SDS011;39569;51.090;-1.786;2023-08-07T02:40:55;3.42;;;2.35;;
53245;SDS011;39569;51.090;-1.786;2023-08-07T02:43:22;2.88;;;2.67;;
53245;SDS011;39569;51.090;-1.786;2023-08-07T02:45:50;3.53;;;2.80;;
53245;SDS011;39569;51.090;-1.786;2023-08-07T02:48:17;3.03;;;2.78;;
53245;SDS011;39569;51.090;-1.786;2023-08-07T02:50:44;2.50;;;2.30;;
53245;SDS011;39569;51.090;-1.786;2023-08-07T02:53:11;2.58;;;2.42;;
53245;SDS011;39569;51.090;-1.786;2023-08-07T02:55:37;3.25;;;2.75;;
53245;SDS011;39569;51.090;-1.786;2023-08-07T02:58:04;4.70;;;2.60;;
53245;SDS011;39569;51.090;-1.786;2023-08-07T03:00:31;2.47;;;2.28;;
53245;SDS011;39569;51.090;-1.786;2023-08-07T03:02:59;2.78;;;2.13;;
53245;SDS011;39569;51.090;-1.786;2023-08-07T03:05:26;2.78;;;2.58;;
53245;SDS011;39569;51.090;-1.786;2023-08-07T03:07:52;2.35;;;1.90;;
53245;SDS011;39569;51.090;-1.786;2023-08-07T03:10:19;2.47;;;2.30;;
53245;SDS011;39569;51.090;-1.786;2023-08-07T03:12:46;3.15;;;2.38;;
53245;SDS011;39569;51.090;-1.786;2023-08-07T03:15:12;3.25;;;2.38;;
53245;SDS011;39569;51.090;-1.786;2023-08-07T03:17:39;2.28;;;2.10;;
53245;SDS011;39569;51.090;-1.786;2023-08-07T03:20:08;5.55;;;2.67;;
53245;SDS011;39569;51.090;-1.786;2023-08-07T03:22:35;2.42;;;2.20;;
53245;SDS011;39569;51.090;-1.786;2023-08-07T03:25:02;5.53;;;3.28;;
53245;SDS011;39569;51.090;-1.786;2023-08-07T03:27:30;2.75;;;2.55;;
53245;SDS011;39569;51.090;-1.786;2023-08-07T03:29:56;3.05;;;2.42;;
53245;SDS011;39569;51.090;-1.786;2023-08-07T03:32:23;2.42;;;2.20;;
53245;SDS011;39569;51.090;-1.786;2023-08-07T03:34:50;3.05;;;1.70;;
53245;SDS011;39569;51.090;-1.786;2023-08-07T03:37:18;2.50;;;2.30;;
53245;SDS011;39569;51.090;-1.786;2023-08-07T03:39:44;2.65;;;2.45;;
53245;SDS011;39569;51.090;-1.786;2023-08-07T03:42:13;2.33;;;2.08;;
53245;SDS011;39569;51.090;-1.786;2023-08-07T03:44:40;2.65;;;2.22;;
53245;SDS011;39569;51.090;-1.786;2023-08-07T03:47:07;2.97;;;2.78;;
53245;SDS011;39569;51.090;-1.786;2023-08-07T03:49:34;2.17;;;1.98;;
53245;SDS011;39569;51.090;-1.786;2023-08-07T03:52:00;2.17;;;1.58;;
53245;SDS011;39569;51.090;-1.786;2023-08-07T03:54:28;2.97;;;2.30;;
53245;SDS011;39569;51.090;-1.786;2023-08-07T03:56:55;3.17;;;2.90;;
53245;SDS011;39569;51.090;-1.786;2023-08-07T03:59:22;3.75;;;3.45;;
53245;SDS011;39569;51.090;-1.786;2023-08-07T04:01:49;3.30;;;2.58;;
53245;SDS011;39569;51.090;-1.786;2023-08-07T04:04:16;3.35;;;3.08;;
53245;SDS011;39569;51.090;-1.786;2023-08-07T04:06:42;3.67;;;3.40;;
53245;SDS011;39569;51.090;-1.786;2023-08-07T04:09:09;4.78;;;4.38;;
53245;SDS011;39569;51.090;-1.786;2023-08-07T04:11:38;7.88;;;5.50;;
53245;SDS011;39569;51.090;-1.786;2023-08-07T04:14:06;5.15;;;4.63;;
53245;SDS011;39569;51.090;-1.786;2023-08-07T04:16:33;4.68;;;4.38;;
53245;SDS011;39569;51.090;-1.786;2023-08-07T04:18:59;5.82;;;5.32;;
53245;SDS011;39569;51.090;-1.786;2023-08-07T04:21:26;6.18;;;5.65;;
53245;SDS011;39569;51.090;-1.786;2023-08-07T04:23:53;5.85;;;4.82;;
53245;SDS011;39569;51.090;-1.786;2023-08-07T04:26:20;9.43;;;6.72;;
53245;SDS011;39569;51.090;-1.786;2023-08-07T04:28:48;6.72;;;6.10;;
53245;SDS011;39569;51.090;-1.786;2023-08-07T04:31:15;7.00;;;6.40;;
53245;SDS011;39569;51.090;-1.786;2023-08-07T04:33:42;6.85;;;6.35;;
53245;SDS011;39569;51.090;-1.786;2023-08-07T04:36:08;6.72;;;5.78;;
53245;SDS011;39569;51.090;-1.786;2023-08-07T04:38:35;9.07;;;6.57;;
53245;SDS011;39569;51.090;-1.786;2023-08-07T04:41:02;6.82;;;6.10;;
53245;SDS011;39569;51.090;-1.786;2023-08-07T04:43:29;6.43;;;5.95;;
53245;SDS011;39569;51.090;-1.786;2023-08-07T04:45:57;6.70;;;6.18;;
53245;SDS011;39569;51.090;-1.786;2023-08-07T04:48:24;11.65;;;6.00;;
53245;SDS011;39569;51.090;-1.786;2023-08-07T04:50:51;7.45;;;6.85;;
53245;SDS011;39569;51.090;-1.786;2023-08-07T04:53:18;6.95;;;6.28;;
53245;SDS011;39569;51.090;-1.786;2023-08-07T04:55:44;8.00;;;7.30;;
53245;SDS011;39569;51.090;-1.786;2023-08-07T04:58:12;6.95;;;6.43;;
53245;SDS011;39569;51.090;-1.786;2023-08-07T05:00:39;6.10;;;5.70;;
53245;SDS011;39569;51.090;-1.786;2023-08-07T05:03:07;8.20;;;7.57;;
53245;SDS011;39569;51.090;-1.786;2023-08-07T05:05:34;6.47;;;6.03;;
53245;SDS011;39569;51.090;-1.786;2023-08-07T05:08:00;6.45;;;5.88;;
53245;SDS011;39569;51.090;-1.786;2023-08-07T05:10:27;7.35;;;6.85;;
53245;SDS011;39569;51.090;-1.786;2023-08-07T05:12:54;6.80;;;6.25;;
53245;SDS011;39569;51.090;-1.786;2023-08-07T05:15:21;7.03;;;5.10;;
53245;SDS011;39569;51.090;-1.786;2023-08-07T05:17:49;8.45;;;5.88;;
53245;SDS011;39569;51.090;-1.786;2023-08-07T05:20:17;6.95;;;6.30;;
53245;SDS011;39569;51.090;-1.786;2023-08-07T05:22:44;6.32;;;5.93;;
53245;SDS011;39569;51.090;-1.786;2023-08-07T05:25:11;8.35;;;7.63;;
53245;SDS011;39569;51.090;-1.786;2023-08-07T05:27:40;7.82;;;7.13;;
53245;SDS011;39569;51.090;-1.786;2023-08-07T05:30:07;7.97;;;7.28;;
53245;SDS011;39569;51.090;-1.786;2023-08-07T05:32:35;6.78;;;6.28;;
53245;SDS011;39569;51.090;-1.786;2023-08-07T05:35:03;8.63;;;7.85;;
53245;SDS011;39569;51.090;-1.786;2023-08-07T05:37:31;8.05;;;6.50;;
53245;SDS011;39569;51.090;-1.786;2023-08-07T05:39:58;8.48;;;7.78;;
53245;SDS011;39569;51.090;-1.786;2023-08-07T05:42:25;8.77;;;8.07;;
53245;SDS011;39569;51.090;-1.786;2023-08-07T05:44:52;9.38;;;8.27;;
53245;SDS011;39569;51.090;-1.786;2023-08-07T05:47:18;8.80;;;8.02;;
53245;SDS011;39569;51.090;-1.786;2023-08-07T05:49:45;7.97;;;7.20;;
53245;SDS011;39569;51.090;-1.786;2023-08-07T05:52:12;8.55;;;7.72;;
53245;SDS011;39569;51.090;-1.786;2023-08-07T05:54:42;8.38;;;7.60;;
53245;SDS011;39569;51.090;-1.786;2023-08-07T05:57:09;10.15;;;9.15;;
53245;SDS011;39569;51.090;-1.786;2023-08-07T05:59:36;9.05;;;8.25;;
53245;SDS011;39569;51.090;-1.786;2023-08-07T06:02:05;9.95;;;9.05;;
53245;SDS011;39569;51.090;-1.786;2023-08-07T06:04:32;12.23;;;9.68;;
53245;SDS011;39569;51.090;-1.786;2023-08-07T06:06:59;12.50;;;9.60;;
53245;SDS011;39569;51.090;-1.786;2023-08-07T06:09:26;10.15;;;8.95;;
53245;SDS011;39569;51.090;-1.786;2023-08-07T06:11:54;9.55;;;8.60;;
53245;SDS011;39569;51.090;-1.786;2023-08-07T06:14:21;11.02;;;10.13;;
53245;SDS011;39569;51.090;-1.786;2023-08-07T06:16:50;9.90;;;8.88;;
53245;SDS011;39569;51.090;-1.786;2023-08-07T06:19:17;8.75;;;8.05;;
53245;SDS011;39569;51.090;-1.786;2023-08-07T06:21:45;8.95;;;8.05;;
53245;SDS011;39569;51.090;-1.786;2023-08-07T06:24:11;7.25;;;6.65;;
53245;SDS011;39569;51.090;-1.786;2023-08-07T06:26:38;8.50;;;7.68;;
53245;SDS011;39569;51.090;-1.786;2023-08-07T06:29:06;9.95;;;9.00;;
53245;SDS011;39569;51.090;-1.786;2023-08-07T06:31:33;8.10;;;7.40;;
53245;SDS011;39569;51.090;-1.786;2023-08-07T06:34:00;8.70;;;8.00;;
53245;SDS011;39569;51.090;-1.786;2023-08-07T06:36:27;7.95;;;7.35;;
53245;SDS011;39569;51.090;-1.786;2023-08-07T06:38:54;7.43;;;6.90;;
53245;SDS011;39569;51.090;-1.786;2023-08-07T06:41:20;7.75;;;7.03;;
53245;SDS011;39569;51.090;-1.786;2023-08-07T06:43:47;6.90;;;6.32;;
53245;SDS011;39569;51.090;-1.786;2023-08-07T06:46:16;6.38;;;5.90;;
53245;SDS011;39569;51.090;-1.786;2023-08-07T06:48:43;6.25;;;5.78;;
53245;SDS011;39569;51.090;-1.786;2023-08-07T06:51:10;6.63;;;6.07;;
53245;SDS011;39569;51.090;-1.786;2023-08-07T06:53:36;7.38;;;6.82;;
53245;SDS011;39569;51.090;-1.786;2023-08-07T06:56:03;7.28;;;6.57;;
53245;SDS011;39569;51.090;-1.786;2023-08-07T06:58:30;7.22;;;6.63;;
53245;SDS011;39569;51.090;-1.786;2023-08-07T07:00:56;9.40;;;7.18;;
53245;SDS011;39569;51.090;-1.786;2023-08-07T07:03:25;9.52;;;8.48;;
53245;SDS011;39569;51.090;-1.786;2023-08-07T07:05:51;9.48;;;6.88;;
53245;SDS011;39569;51.090;-1.786;2023-08-07T07:08:18;8.70;;;7.38;;
53245;SDS011;39569;51.090;-1.786;2023-08-07T07:10:45;8.20;;;7.55;;
53245;SDS011;39569;51.090;-1.786;2023-08-07T07:13:12;6.95;;;6.35;;
53245;SDS011;39569;51.090;-1.786;2023-08-07T07:15:38;7.53;;;6.80;;
53245;SDS011;39569;51.090;-1.786;2023-08-07T07:18:05;7.30;;;6.50;;
53245;SDS011;39569;51.090;-1.786;2023-08-07T07:20:33;5.43;;;4.97;;
53245;SDS011;39569;51.090;-1.786;2023-08-07T07:23:00;5.40;;;5.00;;
53245;SDS011;39569;51.090;-1.786;2023-08-07T07:25:27;4.53;;;4.22;;
53245;SDS011;39569;51.090;-1.786;2023-08-07T07:27:53;4.40;;;4.00;;
53245;SDS011;39569;51.090;-1.786;2023-08-07T07:30:20;3.33;;;3.03;;
53245;SDS011;39569;51.090;-1.786;2023-08-07T07:32:47;3.75;;;3.45;;
53245;SDS011;39569;51.090;-1.786;2023-08-07T07:35:14;3.85;;;3.35;;
53245;SDS011;39569;51.090;-1.786;2023-08-07T07:37:42;6.47;;;3.35;;
53245;SDS011;39569;51.090;-1.786;2023-08-07T07:40:09;5.72;;;4.00;;
53245;SDS011;39569;51.090;-1.786;2023-08-07T07:42:36;2.60;;;2.50;;
53245;SDS011;39569;51.090;-1.786;2023-08-07T07:45:04;3.63;;;3.42;;
53245;SDS011;39569;51.090;-1.786;2023-08-07T07:47:31;2.42;;;2.33;;
53245;SDS011;39569;51.090;-1.786;2023-08-07T07:50:05;2.63;;;2.47;;
53245;SDS011;39569;51.090;-1.786;2023-08-07T07:52:33;2.65;;;2.45;;
53245;SDS011;39569;51.090;-1.786;2023-08-07T07:55:02;3.10;;;2.80;;
53245;SDS011;39569;51.090;-1.786;2023-08-07T07:57:30;2.22;;;2.10;;
53245;SDS011;39569;51.090;-1.786;2023-08-07T07:59:57;3.05;;;2.75;;
53245;SDS011;39569;51.090;-1.786;2023-08-07T08:02:24;1.85;;;1.75;;
53245;SDS011;39569;51.090;-1.786;2023-08-07T08:04:51;2.33;;;2.10;;
53245;SDS011;39569;51.090;-1.786;2023-08-07T08:07:18;2.30;;;2.20;;
53245;SDS011;39569;51.090;-1.786;2023-08-07T08:09:45;4.05;;;2.85;;
53245;SDS011;39569;51.090;-1.786;2023-08-07T08:12:13;2.70;;;2.25;;
53245;SDS011;39569;51.090;-1.786;2023-08-07T08:14:40;1.55;;;1.55;;
53245;SDS011;39569;51.090;-1.786;2023-08-07T08:17:07;2.13;;;1.98;;
53245;SDS011;39569;51.090;-1.786;2023-08-07T08:19:34;1.00;;;1.00;;
53245;SDS011;39569;51.090;-1.786;2023-08-07T08:22:01;1.58;;;1.50;;
53245;SDS011;39569;51.090;-1.786;2023-08-07T08:24:27;1.00;;;1.00;;
53245;SDS011;39569;51.090;-1.786;2023-08-07T08:26:56;0.50;;;0.50;;
53245;SDS011;39569;51.090;-1.786;2023-08-07T08:29:24;1.15;;;1.00;;
53245;SDS011;39569;51.090;-1.786;2023-08-07T08:31:53;1.40;;;1.25;;
53245;SDS011;39569;51.090;-1.786;2023-08-07T08:34:20;1.00;;;0.90;;
53245;SDS011;39569;51.090;-1.786;2023-08-07T08:36:47;1.20;;;1.10;;
53245;SDS011;39569;51.090;-1.786;2023-08-07T08:39:13;1.25;;;1.15;;
53245;SDS011;39569;51.090;-1.786;2023-08-07T08:41:40;1.08;;;1.05;;
53245;SDS011;39569;51.090;-1.786;2023-08-07T08:44:09;1.05;;;0.90;;
53245;SDS011;39569;51.090;-1.786;2023-08-07T08:46:39;1.05;;;1.05;;
53245;SDS011;39569;51.090;-1.786;2023-08-07T08:49:08;0.98;;;0.93;;
53245;SDS011;39569;51.090;-1.786;2023-08-07T08:51:37;3.05;;;0.95;;
53245;SDS011;39569;51.090;-1.786;2023-08-07T08:54:03;0.90;;;0.90;;
53245;SDS011;39569;51.090;-1.786;2023-08-07T08:56:32;1.30;;;1.23;;
53245;SDS011;39569;51.090;-1.786;2023-08-07T08:59:00;0.98;;;0.93;;
53245;SDS011;39569;51.090;-1.786;2023-08-07T09:01:27;0.75;;;0.70;;
53245;SDS011;39569;51.090;-1.786;2023-08-07T09:03:57;1.88;;;0.70;;
53245;SDS011;39569;51.090;-1.786;2023-08-07T09:06:25;0.55;;;0.55;;
53245;SDS011;39569;51.090;-1.786;2023-08-07T09:08:54;1.02;;;0.95;;
53245;SDS011;39569;51.090;-1.786;2023-08-07T09:11:21;0.77;;;0.77;;
53245;SDS011;39569;51.090;-1.786;2023-08-07T09:13:48;1.38;;;0.68;;
53245;SDS011;39569;51.090;-1.786;2023-08-07T09:16:15;0.50;;;0.50;;
53245;SDS011;39569;51.090;-1.786;2023-08-07T09:18:43;0.73;;;0.73;;
53245;SDS011;39569;51.090;-1.786;2023-08-07T09:21:12;1.15;;;1.05;;
53245;SDS011;39569;51.090;-1.786;2023-08-07T09:23:42;0.65;;;0.65;;
53245;SDS011;39569;51.090;-1.786;2023-08-07T09:26:08;0.82;;;0.82;;
53245;SDS011;39569;51.090;-1.786;2023-08-07T09:28:37;1.20;;;1.10;;
53245;SDS011;39569;51.090;-1.786;2023-08-07T09:31:05;3.22;;;1.92;;
53245;SDS011;39569;51.090;-1.786;2023-08-07T09:33:33;2.08;;;1.67;;
53245;SDS011;39569;51.090;-1.786;2023-08-07T09:36:01;0.80;;;0.77;;
53245;SDS011;39569;51.090;-1.786;2023-08-07T09:38:30;1.77;;;0.93;;
53245;SDS011;39569;51.090;-1.786;2023-08-07T09:40:58;1.10;;;0.95;;
53245;SDS011;39569;51.090;-1.786;2023-08-07T09:43:25;1.92;;;1.08;;
53245;SDS011;39569;51.090;-1.786;2023-08-07T09:45:52;0.90;;;0.90;;
53245;SDS011;39569;51.090;-1.786;2023-08-07T09:48:22;0.90;;;0.90;;
53245;SDS011;39569;51.090;-1.786;2023-08-07T09:50:50;0.98;;;0.85;;
53245;SDS011;39569;51.090;-1.786;2023-08-07T09:53:16;0.98;;;0.98;;
53245;SDS011;39569;51.090;-1.786;2023-08-07T09:55:44;0.93;;;0.88;;
53245;SDS011;39569;51.090;-1.786;2023-08-07T09:58:11;1.00;;;0.82;;
53245;SDS011;39569;51.090;-1.786;2023-08-07T10:00:39;1.13;;;1.10;;
53245;SDS011;39569;51.090;-1.786;2023-08-07T10:03:07;0.93;;;0.82;;
53245;SDS011;39569;51.090;-1.786;2023-08-07T10:05:34;2.38;;;1.15;;
53245;SDS011;39569;51.090;-1.786;2023-08-07T10:08:01;0.77;;;0.77;;
53245;SDS011;39569;51.090;-1.786;2023-08-07T10:10:29;0.75;;;0.75;;
53245;SDS011;39569;51.090;-1.786;2023-08-07T10:13:00;0.80;;;0.80;;
53245;SDS011;39569;51.090;-1.786;2023-08-07T10:15:27;1.67;;;0.70;;
53245;SDS011;39569;51.090;-1.786;2023-08-07T10:17:55;1.63;;;0.95;;
53245;SDS011;39569;51.090;-1.786;2023-08-07T10:20:22;0.55;;;0.55;;
53245;SDS011;39569;51.090;-1.786;2023-08-07T10:22:52;2.15;;;1.63;;
53245;SDS011;39569;51.090;-1.786;2023-08-07T10:25:23;0.60;;;0.60;;
53245;SDS011;39569;51.090;-1.786;2023-08-07T10:27:52;1.42;;;1.33;;
53245;SDS011;39569;51.090;-1.786;2023-08-07T10:30:23;0.63;;;0.63;;
53245;SDS011;39569;51.090;-1.786;2023-08-07T10:32:51;0.80;;;0.52;;
53245;SDS011;39569;51.090;-1.786;2023-08-07T10:35:23;0.55;;;0.55;;
53245;SDS011;39569;51.090;-1.786;2023-08-07T10:37:50;1.05;;;0.90;;
53245;SDS011;39569;51.090;-1.786;2023-08-07T10:40:18;0.95;;;0.90;;
53245;SDS011;39569;51.090;-1.786;2023-08-07T10:42:52;0.70;;;0.70;;
53245;SDS011;39569;51.090;-1.786;2023-08-07T10:45:24;0.82;;;0.82;;
53245;SDS011;39569;51.090;-1.786;2023-08-07T10:48:02;2.28;;;1.05;;
53245;SDS011;39569;51.090;-1.786;2023-08-07T10:50:32;0.90;;;0.90;;
53245;SDS011;39569;51.090;-1.786;2023-08-07T10:52:59;0.98;;;0.98;;
53245;SDS011;39569;51.090;-1.786;2023-08-07T10:55:30;1.35;;;0.85;;
53245;SDS011;39569;51.090;-1.786;2023-08-07T10:57:58;0.60;;;0.60;;
53245;SDS011;39569;51.090;-1.786;2023-08-07T11:00:27;1.02;;;0.98;;
53245;SDS011;39569;51.090;-1.786;2023-08-07T11:02:54;1.50;;;1.00;;
53245;SDS011;39569;51.090;-1.786;2023-08-07T11:05:26;0.82;;;0.82;;
53245;SDS011;39569;51.090;-1.786;2023-08-07T11:07:52;1.02;;;1.02;;
53245;SDS011;39569;51.090;-1.786;2023-08-07T11:10:20;1.08;;;1.08;;
53245;SDS011;39569;51.090;-1.786;2023-08-07T11:12:46;0.65;;;0.65;;
53245;SDS011;39569;51.090;-1.786;2023-08-07T11:15:14;0.80;;;0.80;;
53245;SDS011;39569;51.090;-1.786;2023-08-07T11:17:43;1.20;;;0.82;;
53245;SDS011;39569;51.090;-1.786;2023-08-07T11:20:11;0.88;;;0.85;;
53245;SDS011;39569;51.090;-1.786;2023-08-07T11:22:38;0.93;;;0.90;;
53245;SDS011;39569;51.090;-1.786;2023-08-07T11:25:06;1.90;;;1.02;;
53245;SDS011;39569;51.090;-1.786;2023-08-07T11:27:38;0.77;;;0.77;;
53245;SDS011;39569;51.090;-1.786;2023-08-07T11:30:06;0.93;;;0.93;;
53245;SDS011;39569;51.090;-1.786;2023-08-07T11:32:37;2.05;;;1.30;;
53245;SDS011;39569;51.090;-1.786;2023-08-07T11:35:07;1.73;;;0.93;;
53245;SDS011;39569;51.090;-1.786;2023-08-07T11:37:34;1.05;;;0.95;;
53245;SDS011;39569;51.090;-1.786;2023-08-07T11:40:01;1.55;;;1.05;;
53245;SDS011;39569;51.090;-1.786;2023-08-07T11:42:28;2.38;;;0.80;;
53245;SDS011;39569;51.090;-1.786;2023-08-07T11:44:55;2.70;;;0.85;;
53245;SDS011;39569;51.090;-1.786;2023-08-07T11:47:22;0.55;;;0.55;;
53245;SDS011;39569;51.090;-1.786;2023-08-07T11:49:49;1.00;;;0.88;;
53245;SDS011;39569;51.090;-1.786;2023-08-07T11:52:19;1.40;;;1.15;;
53245;SDS011;39569;51.090;-1.786;2023-08-07T11:54:47;0.43;;;0.43;;
53245;SDS011;39569;51.090;-1.786;2023-08-07T11:57:15;0.73;;;0.73;;
53245;SDS011;39569;51.090;-1.786;2023-08-07T11:59:42;1.38;;;1.13;;
53245;SDS011;39569;51.090;-1.786;2023-08-07T12:02:10;0.82;;;0.82;;
53245;SDS011;39569;51.090;-1.786;2023-08-07T12:04:37;1.23;;;1.13;;
53245;SDS011;39569;51.090;-1.786;2023-08-07T12:07:04;1.25;;;1.02;;
53245;SDS011;39569;51.090;-1.786;2023-08-07T12:09:33;1.27;;;1.05;;
53245;SDS011;39569;51.090;-1.786;2023-08-07T12:11:59;1.40;;;1.15;;
53245;SDS011;39569;51.090;-1.786;2023-08-07T12:14:29;1.45;;;1.08;;
53245;SDS011;39569;51.090;-1.786;2023-08-07T12:16:56;1.20;;;0.85;;
53245;SDS011;39569;51.090;-1.786;2023-08-07T12:19:22;1.55;;;1.05;;
53245;SDS011;39569;51.090;-1.786;2023-08-07T12:21:49;2.63;;;1.10;;
53245;SDS011;39569;51.090;-1.786;2023-08-07T12:24:16;1.95;;;1.33;;
53245;SDS011;39569;51.090;-1.786;2023-08-07T12:26:46;1.42;;;1.25;;
53245;SDS011;39569;51.090;-1.786;2023-08-07T12:29:13;3.00;;;1.60;;
53245;SDS011;39569;51.090;-1.786;2023-08-07T12:31:40;1.63;;;1.05;;
53245;SDS011;39569;51.090;-1.786;2023-08-07T12:34:07;1.13;;;0.90;;
53245;SDS011;39569;51.090;-1.786;2023-08-07T12:36:35;1.92;;;1.60;;
53245;SDS011;39569;51.090;-1.786;2023-08-07T12:39:02;1.20;;;1.10;;
53245;SDS011;39569;51.090;-1.786;2023-08-07T12:41:29;1.45;;;1.35;;
53245;SDS011;39569;51.090;-1.786;2023-08-07T12:43:57;0.50;;;0.50;;
53245;SDS011;39569;51.090;-1.786;2023-08-07T12:46:24;2.03;;;0.95;;
53245;SDS011;39569;51.090;-1.786;2023-08-07T12:48:51;1.23;;;1.05;;
53245;SDS011;39569;51.090;-1.786;2023-08-07T12:51:18;10.90;;;1.40;;
53245;SDS011;39569;51.090;-1.786;2023-08-07T12:53:44;1.48;;;1.23;;
53245;SDS011;39569;51.090;-1.786;2023-08-07T12:56:12;0.88;;;0.88;;
53245;SDS011;39569;51.090;-1.786;2023-08-07T12:58:39;1.83;;;1.67;;
53245;SDS011;39569;51.090;-1.786;2023-08-07T13:01:07;3.67;;;1.17;;
53245;SDS011;39569;51.090;-1.786;2023-08-07T13:03:34;1.35;;;1.23;;
53245;SDS011;39569;51.090;-1.786;2023-08-07T13:06:01;6.38;;;2.25;;
53245;SDS011;39569;51.090;-1.786;2023-08-07T13:08:30;2.95;;;2.17;;
53245;SDS011;39569;51.090;-1.786;2023-08-07T13:10:58;3.10;;;1.05;;
53245;SDS011;39569;51.090;-1.786;2023-08-07T13:13:25;3.15;;;1.63;;
53245;SDS011;39569;51.090;-1.786;2023-08-07T13:15:53;1.15;;;1.05;;
53245;SDS011;39569;51.090;-1.786;2023-08-07T13:18:21;1.20;;;1.20;;
53245;SDS011;39569;51.090;-1.786;2023-08-07T13:20:48;1.98;;;1.30;;
53245;SDS011;39569;51.090;-1.786;2023-08-07T13:23:15;0.93;;;0.93;;
53245;SDS011;39569;51.090;-1.786;2023-08-07T13:25:41;2.10;;;1.30;;
53245;SDS011;39569;51.090;-1.786;2023-08-07T13:28:08;1.48;;;1.00;;
53245;SDS011;39569;51.090;-1.786;2023-08-07T13:30:35;1.52;;;1.00;;
53245;SDS011;39569;51.090;-1.786;2023-08-07T13:33:02;1.42;;;1.13;;
53245;SDS011;39569;51.090;-1.786;2023-08-07T13:35:30;1.83;;;1.67;;
53245;SDS011;39569;51.090;-1.786;2023-08-07T13:37:57;3.25;;;1.75;;
53245;SDS011;39569;51.090;-1.786;2023-08-07T13:40:24;1.85;;;1.30;;
53245;SDS011;39569;51.090;-1.786;2023-08-07T13:42:51;2.55;;;1.30;;
53245;SDS011;39569;51.090;-1.786;2023-08-07T13:45:18;0.82;;;0.82;;
53245;SDS011;39569;51.090;-1.786;2023-08-07T13:47:45;1.23;;;1.10;;
53245;SDS011;39569;51.090;-1.786;2023-08-07T13:50:12;1.20;;;1.10;;
53245;SDS011;39569;51.090;-1.786;2023-08-07T13:52:40;1.30;;;1.00;;
53245;SDS011;39569;51.090;-1.786;2023-08-07T13:55:07;1.85;;;0.95;;
53245;SDS011;39569;51.090;-1.786;2023-08-07T13:57:35;0.90;;;0.90;;
53245;SDS011;39569;51.090;-1.786;2023-08-07T14:00:01;1.10;;;1.10;;
53245;SDS011;39569;51.090;-1.786;2023-08-07T14:02:29;2.70;;;2.03;;
53245;SDS011;39569;51.090;-1.786;2023-08-07T14:04:56;1.40;;;1.27;;
53245;SDS011;39569;51.090;-1.786;2023-08-07T14:07:23;2.92;;;1.95;;
53245;SDS011;39569;51.090;-1.786;2023-08-07T14:09:51;2.20;;;1.33;;
53245;SDS011;39569;51.090;-1.786;2023-08-07T14:12:18;5.03;;;1.48;;
53245;SDS011;39569;51.090;-1.786;2023-08-07T14:14:45;2.28;;;1.35;;
53245;SDS011;39569;51.090;-1.786;2023-08-07T14:17:11;1.63;;;1.45;;
53245;SDS011;39569;51.090;-1.786;2023-08-07T14:19:38;1.42;;;0.90;;
53245;SDS011;39569;51.090;-1.786;2023-08-07T14:22:05;1.70;;;1.60;;
53245;SDS011;39569;51.090;-1.786;2023-08-07T14:24:32;1.52;;;1.23;;
53245;SDS011;39569;51.090;-1.786;2023-08-07T14:27:00;4.35;;;1.17;;
53245;SDS011;39569;51.090;-1.786;2023-08-07T14:29:27;0.77;;;0.77;;
53245;SDS011;39569;51.090;-1.786;2023-08-07T14:31:53;3.38;;;1.90;;
53245;SDS011;39569;51.090;-1.786;2023-08-07T14:34:20;8.63;;;1.58;;